メインページ
METAR-TAF:

METAR-TAF

空港 :

Edson, アルバータ州, カナダ

緯度: 53-35N, 経度: 116-28W, 海抜: 921m

現時点の気象観測

当レポートは15分前の01:19(UTC)に作成
西の風 5kt、南/南西から西/北西の間で変化する
気温 11°C
湿度 94%
気圧 1013 hPa
視程: 14.5km
高度5000ftの雲はほとんどない
高度8000ftの曇り
小雨, 近辺で激しい雷雨

METAR: CYET 240119Z AUTO 26005KT 210V300 9SM -RA VCTS FEW050 OVC080 11/10 A2991 RMK LTNG DIST NW SLP144 DENSITY ALT 3200FT

時間: 19:34 (01:34 UTC)


TAF: 見つかりません

4,000以上の空港の気象観測と天気予報(METAR報とTAF報)

利用可能な観測所は地図上に黄色い丸と赤い丸で示す。

丸の上にカーソルを重ねると観測所名を参照できる。

次にクリックすると気象観測と天気予報を参照できる。

マップの切り替え:黒色「×」印の緑ボタンをクリックして拡大、「-」印の緑ボタンをクリックして縮小、緑色の三角印をクリックして隣りの地図に切り替え


METAR-TAF: